Arenas Valley, NM

9:42 AM MDT on April 18, 2015 (GMT -0600)
Grant County | | Change Station
CLOSE
Current Station
Airport
Location: Silver City,
Elevation: 5443 ft
Nearby Weather Stations

Elev 5443 ft 32.64 °N, 108.16 °W | Updated 7 minutes ago

Clear
Clear
55 °F
Feels Like 55 °F
N
15
Wind Variable Wind from NW
Gusts 21 mph

Today
High -- | Low -- °F
--% Chance of Precip.
Yesterday
High -- | Low -- °F
Precip. -- in
6:39 AM 7:44 PM
Waning Crescent, 0% visible
Pressure 30.09 in
Visibility 10.0 miles
Clouds
Dew Point 16 °F
Humidity 21%
Rainfall 0.00 in
Snow Depth Not available.
UV Not available.
Pollen 9.70 out of 12
Air Quality Not available.
Flu Activity Local Activity
METAR KSVC 181535Z AUTO 31013G18KT 10SM 13/M09 A3009 RMK AO2

More Conditions Fewer Conditions

Pressure 30.09 in
Visibility 10.0 miles
Clouds
Dew Point 16 °F
Humidity 21%
Rainfall 0.00 in
Snow Depth Not available.
UV Not available.
Pollen 9.70 out of 12
Air Quality Not available.
Flu Activity Local Activity
METAR KSVC 181535Z AUTO 31013G18KT 10SM 13/M09 A3009 RMK AO2

More Conditions Fewer Conditions

10-Day Weather Forecast

Almanac

Astronomy

Apr. 18, 2015 Rise Set
Actual Time
Civil Twilight
Nautical Twilight
Astronomical Twilight
Moon
Length of Visible Light
Length of Day
Tomorrow will be .
, % of the Moon is Illuminated

Today's Extremes

State Highs State Lows

Community

WunderPhotos

Upload Photos

1,814,439 photos uploaded!

WunderBlogs® & News

Nearby

Air Quality

  Air Quality AQ Index Pollutant
Not available.

Snow Depth

Station Depth Elevation

Earthquake Activity

City Distance Mag. Time & Date
Minimum magnitude displayed is 2.5.

Coastal Water Temperatures

Place Temperature

Stations

Nearby Weather Stations

Station Location Temp. Windchill Dew Point Humidity Wind Precip. Elev Updated Type